createdAt,value
2023-06-29T00:00:25.352Z,18.30
2023-06-29T00:02:54.225Z,18.30
2023-06-29T00:05:22.692Z,18.40
2023-06-29T00:07:50.385Z,18.30
2023-06-29T00:10:17.853Z,18.30
2023-06-29T00:12:45.048Z,18.20
2023-06-29T00:15:12.174Z,18.30
2023-06-29T00:17:39.236Z,18.20
2023-06-29T00:20:11.692Z,18.00
2023-06-29T00:22:41.795Z,17.90
2023-06-29T00:25:10.215Z,17.80
2023-06-29T00:27:37.199Z,17.70
2023-06-29T00:30:04.473Z,17.70
2023-06-29T00:32:31.524Z,17.60
2023-06-29T00:34:58.481Z,17.60
2023-06-29T00:37:25.789Z,17.60
2023-06-29T00:39:52.803Z,17.40
2023-06-29T00:42:19.752Z,17.40
2023-06-29T00:44:48.069Z,17.30
2023-06-29T00:47:15.177Z,17.40
2023-06-29T00:49:42.748Z,17.30
2023-06-29T00:52:10.435Z,17.30
2023-06-29T00:54:37.718Z,17.40
2023-06-29T00:57:05.036Z,17.30
2023-06-29T00:59:31.955Z,17.20
2023-06-29T01:01:58.945Z,17.10
2023-06-29T01:04:28.856Z,17.10
2023-06-29T01:07:19.164Z,17.10
2023-06-29T01:09:47.813Z,17.10
2023-06-29T01:12:16.548Z,17.00
2023-06-29T01:14:45.450Z,17.00
2023-06-29T01:17:16.369Z,17.00
2023-06-29T01:19:46.355Z,17.00
2023-06-29T01:22:26.405Z,17.10
2023-06-29T01:24:53.960Z,17.10
2023-06-29T01:27:22.607Z,17.10
2023-06-29T01:29:54.654Z,17.10
2023-06-29T01:32:21.828Z,17.10
2023-06-29T01:34:49.072Z,17.10
2023-06-29T01:37:22.836Z,17.10
2023-06-29T01:40:02.139Z,17.10
2023-06-29T01:42:32.047Z,17.00
2023-06-29T01:45:01.449Z,17.00
2023-06-29T01:47:29.029Z,17.00
2023-06-29T01:49:56.908Z,17.00
2023-06-29T01:52:24.039Z,17.00
2023-06-29T01:54:52.014Z,17.00
2023-06-29T01:57:19.308Z,17.00
2023-06-29T01:59:46.997Z,17.00
2023-06-29T02:02:14.396Z,17.10
2023-06-29T02:04:41.420Z,17.10
2023-06-29T02:07:08.374Z,17.10
2023-06-29T02:09:35.307Z,17.10
2023-06-29T02:12:03.345Z,17.20
2023-06-29T02:14:30.405Z,17.20
2023-06-29T02:16:57.384Z,17.20
2023-06-29T02:19:24.313Z,17.30
2023-06-29T02:21:51.233Z,17.30
2023-06-29T02:24:18.578Z,17.30
2023-06-29T02:26:45.625Z,17.40
2023-06-29T02:29:12.605Z,17.40
2023-06-29T02:31:39.549Z,17.30
2023-06-29T02:34:11.042Z,17.20
2023-06-29T02:44:13.678Z,17.10
2023-06-29T02:46:41.809Z,17.10
2023-06-29T02:49:09.029Z,17.10
2023-06-29T02:51:36.047Z,17.20
2023-06-29T02:54:02.988Z,17.30
2023-06-29T02:56:29.815Z,17.30
2023-06-29T02:58:56.745Z,17.30
2023-06-29T03:01:24.133Z,17.30
2023-06-29T03:03:51.047Z,17.20
2023-06-29T03:06:17.959Z,17.30
2023-06-29T03:08:44.776Z,17.20
2023-06-29T03:11:11.683Z,17.10
2023-06-29T03:13:38.689Z,17.10
2023-06-29T03:16:05.947Z,17.10
2023-06-29T03:18:32.903Z,17.10
2023-06-29T03:20:59.977Z,17.20
2023-06-29T03:23:26.853Z,17.40
2023-06-29T03:25:53.774Z,17.50
2023-06-29T03:28:20.943Z,17.40
2023-06-29T03:30:47.844Z,17.40
2023-06-29T03:33:14.839Z,17.40
2023-06-29T03:35:42.266Z,17.40
2023-06-29T03:38:10.565Z,17.40
2023-06-29T03:40:37.854Z,17.60
2023-06-29T03:43:04.778Z,17.60
2023-06-29T03:45:32.816Z,17.70
2023-06-29T03:48:00.027Z,17.60
2023-06-29T03:50:27.001Z,17.60
2023-06-29T03:52:53.964Z,17.60
2023-06-29T03:55:20.921Z,17.60
2023-06-29T03:57:47.939Z,17.60
2023-06-29T04:00:15.131Z,17.70
2023-06-29T04:02:42.784Z,17.70
2023-06-29T04:05:10.354Z,17.80
2023-06-29T04:07:37.533Z,17.80
2023-06-29T04:10:04.749Z,17.80
2023-06-29T04:12:31.589Z,17.80
2023-06-29T04:14:58.552Z,17.90
2023-06-29T04:17:25.511Z,17.90
2023-06-29T04:19:52.490Z,17.90
2023-06-29T04:22:19.474Z,18.00
2023-06-29T04:24:46.759Z,18.00
2023-06-29T04:27:13.847Z,18.10
2023-06-29T04:29:42.261Z,18.20
2023-06-29T04:32:09.385Z,18.30
2023-06-29T04:34:36.274Z,18.40
2023-06-29T04:37:03.578Z,18.50
2023-06-29T04:39:30.554Z,18.50
2023-06-29T04:42:02.676Z,18.60
2023-06-29T04:44:33.464Z,18.60
2023-06-29T04:47:01.570Z,18.60
2023-06-29T04:49:38.698Z,18.60
2023-06-29T04:52:06.841Z,18.60
2023-06-29T04:54:33.981Z,18.60
2023-06-29T04:57:00.945Z,18.70
2023-06-29T04:59:29.821Z,18.70
2023-06-29T05:01:56.999Z,18.80
2023-06-29T05:04:24.039Z,18.90
2023-06-29T05:06:50.961Z,19.00
2023-06-29T05:09:17.952Z,19.10
2023-06-29T05:11:45.062Z,19.20
2023-06-29T05:14:12.038Z,19.30
2023-06-29T05:16:39.157Z,19.30
2023-06-29T05:19:06.111Z,19.40
2023-06-29T05:21:33.044Z,19.40
2023-06-29T05:23:59.981Z,19.50
2023-06-29T05:26:26.783Z,19.60
2023-06-29T05:31:23.569Z,19.60
2023-06-29T05:33:50.468Z,19.70
2023-06-29T05:36:17.472Z,19.90
2023-06-29T05:38:44.438Z,20.30
2023-06-29T05:41:11.367Z,20.50
2023-06-29T05:43:38.532Z,20.50
2023-06-29T05:46:05.640Z,20.80
2023-06-29T05:48:32.513Z,20.90
2023-06-29T05:50:59.553Z,20.90
2023-06-29T05:53:26.621Z,20.90
2023-06-29T05:55:53.495Z,21.00
2023-06-29T05:58:20.384Z,21.10
2023-06-29T06:00:47.289Z,21.10
2023-06-29T06:03:14.497Z,21.10
2023-06-29T06:05:41.532Z,21.20
2023-06-29T06:08:08.460Z,21.20
2023-06-29T06:10:35.712Z,20.80
2023-06-29T06:13:04.270Z,20.60
2023-06-29T06:15:31.194Z,20.80
2023-06-29T06:17:58.176Z,20.90
2023-06-29T06:20:25.271Z,20.90
2023-06-29T06:22:52.147Z,20.80
2023-06-29T06:25:19.203Z,21.00
2023-06-29T06:27:46.234Z,20.80
2023-06-29T06:30:13.206Z,20.90
2023-06-29T06:32:40.471Z,21.20
2023-06-29T06:35:09.182Z,21.40
2023-06-29T06:37:39.840Z,21.50
2023-06-29T06:40:08.997Z,21.80
2023-06-29T06:42:36.885Z,21.80
2023-06-29T06:45:07.658Z,21.80
2023-06-29T06:47:35.781Z,21.90
2023-06-29T06:50:03.805Z,22.00
2023-06-29T06:52:30.697Z,22.00
2023-06-29T06:54:57.772Z,21.90
2023-06-29T06:57:25.139Z,22.00
2023-06-29T06:59:52.130Z,21.90
2023-06-29T07:02:19.359Z,21.80
2023-06-29T07:04:46.616Z,21.80
2023-06-29T07:07:13.660Z,21.80
2023-06-29T07:09:40.610Z,21.90
2023-06-29T07:12:08.257Z,22.00
2023-06-29T07:14:35.188Z,21.80
2023-06-29T07:17:02.198Z,22.00
2023-06-29T07:24:29.478Z,21.80
2023-06-29T07:26:56.397Z,21.80
2023-06-29T07:29:23.338Z,21.90
2023-06-29T07:31:50.325Z,21.80
2023-06-29T07:34:17.363Z,21.80
2023-06-29T07:36:44.336Z,21.70
2023-06-29T07:39:11.292Z,21.70
2023-06-29T07:41:38.287Z,21.60
2023-06-29T07:44:05.467Z,21.60
2023-06-29T07:46:35.090Z,21.50
2023-06-29T07:49:02.320Z,21.60
2023-06-29T07:51:34.530Z,21.60
2023-06-29T07:54:05.463Z,21.70
2023-06-29T07:59:03.576Z,21.70
2023-06-29T08:01:30.756Z,21.70
2023-06-29T08:04:02.812Z,21.70
2023-06-29T08:09:03.227Z,22.00
2023-06-29T08:11:30.787Z,22.00
2023-06-29T08:13:57.793Z,22.20
2023-06-29T08:16:24.890Z,22.40
2023-06-29T08:18:52.078Z,22.60
2023-06-29T08:21:19.061Z,22.70
2023-06-29T08:23:48.017Z,22.70
2023-06-29T08:26:15.041Z,23.10
2023-06-29T08:28:42.030Z,23.30
2023-06-29T08:31:09.071Z,23.50
2023-06-29T08:33:36.192Z,23.70
2023-06-29T08:36:03.509Z,23.60
2023-06-29T08:38:30.513Z,23.40
2023-06-29T08:40:59.946Z,23.20
2023-06-29T08:43:27.666Z,23.20
2023-06-29T08:45:54.674Z,23.30
2023-06-29T08:48:23.344Z,23.40
2023-06-29T08:50:58.089Z,23.40
2023-06-29T08:53:26.962Z,23.40
2023-06-29T08:55:54.913Z,23.30
2023-06-29T08:58:23.695Z,23.30
2023-06-29T09:00:51.782Z,23.40
2023-06-29T09:03:20.080Z,23.80
2023-06-29T09:05:47.174Z,24.20
2023-06-29T09:08:15.020Z,24.60
2023-06-29T09:10:42.535Z,24.80
2023-06-29T09:13:10.708Z,24.90
2023-06-29T09:15:40.716Z,25.40
2023-06-29T09:18:09.199Z,25.50
2023-06-29T09:20:37.275Z,25.60
2023-06-29T09:23:07.075Z,26.00
2023-06-29T09:25:37.320Z,26.30
2023-06-29T09:28:09.114Z,26.20
2023-06-29T09:30:40.535Z,26.00
2023-06-29T09:33:12.436Z,25.90
2023-06-29T09:35:51.608Z,26.10
2023-06-29T09:38:19.362Z,26.00
2023-06-29T09:40:54.345Z,26.20
2023-06-29T09:43:26.628Z,25.80
2023-06-29T09:46:08.783Z,25.60
2023-06-29T09:51:22.462Z,25.60
2023-06-29T09:53:49.820Z,25.70
2023-06-29T09:56:18.229Z,25.90
2023-06-29T09:58:47.321Z,25.80
2023-06-29T10:01:17.279Z,25.90
2023-06-29T10:03:45.082Z,26.10
2023-06-29T10:06:22.961Z,25.80
2023-06-29T10:08:58.609Z,25.70
2023-06-29T10:11:32.896Z,25.40
2023-06-29T10:14:05.741Z,25.40
2023-06-29T10:16:36.390Z,25.20
2023-06-29T10:19:25.486Z,25.20
2023-06-29T10:21:58.011Z,25.20
2023-06-29T10:24:31.310Z,25.10
2023-06-29T10:27:00.246Z,25.40
2023-06-29T10:29:27.215Z,25.30
2023-06-29T10:31:59.325Z,25.60
2023-06-29T10:34:27.892Z,25.50
2023-06-29T10:37:01.051Z,25.90
2023-06-29T10:39:43.658Z,26.20
2023-06-29T10:42:23.117Z,26.50
2023-06-29T10:44:50.203Z,26.70
2023-06-29T10:47:39.647Z,26.30
2023-06-29T10:50:12.524Z,25.90
2023-06-29T10:52:40.556Z,25.70
2023-06-29T10:55:30.268Z,25.40
2023-06-29T10:58:01.676Z,25.60
2023-06-29T11:00:28.608Z,25.30
2023-06-29T11:02:56.279Z,25.60
2023-06-29T11:05:25.012Z,25.70
2023-06-29T11:07:53.442Z,25.90
2023-06-29T11:10:23.977Z,25.60
2023-06-29T11:12:52.534Z,25.50
2023-06-29T11:18:10.782Z,25.60
2023-06-29T11:20:40.746Z,25.70
2023-06-29T11:23:11.573Z,25.70
2023-06-29T11:25:38.576Z,25.70
2023-06-29T11:28:05.944Z,25.50
2023-06-29T11:30:33.110Z,25.30
2023-06-29T11:33:02.895Z,25.20
2023-06-29T11:35:32.808Z,25.00
2023-06-29T11:38:02.092Z,24.70
2023-06-29T11:40:30.052Z,24.70
2023-06-29T11:42:57.226Z,24.70
2023-06-29T11:45:24.897Z,24.80
2023-06-29T11:47:56.662Z,24.90
2023-06-29T11:50:25.261Z,25.10
2023-06-29T11:52:53.014Z,25.40
2023-06-29T11:55:21.545Z,25.40
2023-06-29T11:57:52.820Z,25.50
2023-06-29T12:00:19.794Z,25.50
2023-06-29T12:02:46.667Z,25.50
2023-06-29T12:05:13.726Z,25.50
2023-06-29T12:07:43.236Z,25.40
2023-06-29T12:10:15.147Z,25.30
2023-06-29T12:12:46.997Z,25.70
2023-06-29T12:15:17.986Z,26.00
2023-06-29T12:20:22.063Z,25.90
2023-06-29T12:22:51.814Z,26.10
2023-06-29T12:25:20.671Z,26.20
2023-06-29T12:27:49.537Z,26.10
2023-06-29T12:30:18.472Z,26.00
2023-06-29T12:32:50.443Z,25.50
2023-06-29T12:35:18.767Z,25.60
2023-06-29T12:37:46.426Z,25.60
2023-06-29T12:40:16.177Z,25.40
2023-06-29T12:42:43.170Z,25.50
2023-06-29T12:45:10.622Z,25.60
2023-06-29T12:47:39.135Z,25.90
2023-06-29T12:50:07.347Z,25.90
2023-06-29T12:52:34.427Z,25.80
2023-06-29T12:55:01.345Z,26.00
2023-06-29T12:57:29.886Z,25.40
2023-06-29T12:59:58.317Z,25.40
2023-06-29T13:02:26.039Z,25.40
2023-06-29T13:04:53.479Z,25.40
2023-06-29T13:07:21.139Z,25.30
2023-06-29T13:09:48.972Z,25.50
2023-06-29T13:12:16.469Z,25.60
2023-06-29T13:14:43.712Z,25.60
2023-06-29T13:17:12.104Z,25.80
2023-06-29T13:19:43.726Z,26.00
2023-06-29T13:22:10.858Z,25.90
2023-06-29T13:24:38.082Z,25.40
2023-06-29T13:27:05.666Z,25.10
2023-06-29T13:29:33.215Z,24.90
2023-06-29T13:32:00.568Z,25.20
2023-06-29T13:34:29.922Z,25.10
2023-06-29T13:36:58.161Z,24.90
2023-06-29T13:39:24.998Z,24.80
2023-06-29T13:41:52.005Z,24.70
2023-06-29T13:44:19.024Z,24.80
2023-06-29T13:46:47.859Z,25.00
2023-06-29T13:49:16.636Z,24.80
2023-06-29T13:51:44.369Z,24.60
2023-06-29T13:54:12.271Z,24.60
2023-06-29T13:56:39.434Z,24.50
2023-06-29T13:59:08.322Z,24.50
2023-06-29T14:01:40.161Z,24.40
2023-06-29T14:04:09.545Z,24.40
2023-06-29T14:06:42.258Z,24.40
2023-06-29T14:09:10.084Z,24.30
2023-06-29T14:11:37.182Z,24.30
2023-06-29T14:14:04.567Z,24.40
2023-06-29T14:16:32.421Z,24.80
2023-06-29T14:19:00.654Z,25.20
2023-06-29T14:21:27.980Z,25.60
2023-06-29T14:23:55.450Z,25.30
2023-06-29T14:26:23.803Z,25.40
2023-06-29T14:28:50.844Z,26.00
2023-06-29T14:31:18.863Z,25.90
2023-06-29T14:33:46.418Z,25.60
2023-06-29T14:36:13.990Z,25.20
2023-06-29T14:38:41.041Z,25.30
2023-06-29T14:41:08.144Z,25.40
2023-06-29T14:43:34.993Z,25.20
2023-06-29T14:46:02.013Z,25.00
2023-06-29T14:48:28.967Z,24.90
2023-06-29T14:50:56.733Z,24.80
2023-06-29T14:53:24.342Z,24.80
2023-06-29T14:56:04.086Z,24.70
2023-06-29T14:58:31.368Z,24.60
2023-06-29T15:00:58.502Z,24.50
2023-06-29T15:03:25.870Z,24.50
2023-06-29T15:05:52.967Z,24.60
2023-06-29T15:08:20.032Z,24.60
2023-06-29T15:10:47.146Z,24.60
2023-06-29T15:13:14.129Z,24.50
2023-06-29T15:15:41.393Z,24.50
2023-06-29T15:18:08.804Z,24.40
2023-06-29T15:20:36.004Z,24.50
2023-06-29T15:23:02.923Z,24.60
2023-06-29T15:25:29.940Z,24.30
2023-06-29T15:28:00.281Z,24.40
2023-06-29T15:30:27.164Z,24.30
2023-06-29T15:32:55.831Z,24.40
2023-06-29T15:35:23.495Z,24.20
2023-06-29T15:37:50.571Z,24.10
2023-06-29T15:40:18.039Z,24.20
2023-06-29T15:42:46.620Z,24.20
2023-06-29T15:45:13.856Z,24.00
2023-06-29T15:47:41.381Z,24.00
2023-06-29T15:50:09.022Z,24.10
2023-06-29T15:52:36.248Z,24.20
2023-06-29T15:55:03.398Z,24.30
2023-06-29T15:57:31.822Z,24.20
2023-06-29T15:59:58.985Z,24.20
2023-06-29T16:02:26.993Z,24.10
2023-06-29T16:04:54.109Z,24.00
2023-06-29T16:07:25.611Z,23.80
2023-06-29T16:09:52.683Z,23.70
2023-06-29T16:12:19.705Z,23.60
2023-06-29T16:14:46.696Z,23.50
2023-06-29T16:17:13.717Z,23.40
2023-06-29T16:19:40.764Z,23.30
2023-06-29T16:22:08.049Z,23.30
2023-06-29T16:24:35.005Z,23.40
2023-06-29T16:27:02.120Z,23.40
2023-06-29T16:29:29.030Z,23.60
2023-06-29T16:32:01.122Z,23.70
2023-06-29T16:34:28.061Z,23.70
2023-06-29T16:36:55.070Z,23.90
2023-06-29T16:39:22.550Z,24.00
2023-06-29T16:41:50.064Z,24.20
2023-06-29T16:44:16.973Z,24.30
2023-06-29T16:46:43.924Z,24.20
2023-06-29T16:49:10.978Z,24.30
2023-06-29T16:51:37.912Z,24.60
2023-06-29T16:54:04.872Z,24.70
2023-06-29T16:56:31.843Z,24.60
2023-06-29T16:58:58.776Z,24.40
2023-06-29T17:01:26.084Z,24.20
2023-06-29T17:03:53.310Z,24.30
2023-06-29T17:06:20.309Z,24.40
2023-06-29T17:08:47.935Z,24.30
2023-06-29T17:11:15.001Z,24.30
2023-06-29T17:13:41.944Z,24.60
2023-06-29T17:16:08.967Z,24.70
2023-06-29T17:18:35.987Z,24.40
2023-06-29T17:21:03.194Z,24.70
2023-06-29T17:23:30.269Z,24.70
2023-06-29T17:25:57.189Z,24.50
2023-06-29T17:28:24.324Z,24.30
2023-06-29T17:30:52.005Z,24.70
2023-06-29T17:33:19.092Z,24.80
2023-06-29T17:35:46.134Z,24.40
2023-06-29T17:38:13.215Z,24.40
2023-06-29T17:40:40.376Z,24.40
2023-06-29T17:43:07.313Z,24.50
2023-06-29T17:45:34.458Z,24.30
2023-06-29T17:48:01.460Z,24.30
2023-06-29T17:50:28.380Z,24.40
2023-06-29T17:52:55.232Z,24.30
2023-06-29T17:55:22.176Z,24.10
2023-06-29T17:57:49.124Z,24.30
2023-06-29T18:00:16.606Z,24.40
2023-06-29T18:02:43.816Z,24.40
2023-06-29T18:05:11.329Z,24.30
2023-06-29T18:07:38.913Z,24.20
2023-06-29T18:10:08.325Z,24.30
2023-06-29T18:12:36.678Z,24.20
2023-06-29T18:15:05.798Z,24.20
2023-06-29T18:17:32.882Z,24.30
2023-06-29T18:20:01.193Z,24.20
2023-06-29T18:22:28.401Z,24.10
2023-06-29T18:24:55.419Z,24.00
2023-06-29T18:27:23.343Z,23.90
2023-06-29T18:29:50.526Z,24.00
2023-06-29T18:32:18.966Z,23.80
2023-06-29T18:34:47.625Z,23.80
2023-06-29T18:37:15.198Z,23.70
2023-06-29T18:39:42.896Z,23.70
2023-06-29T18:42:11.364Z,23.80
2023-06-29T18:44:38.405Z,23.80
2023-06-29T18:47:12.715Z,23.60
2023-06-29T18:49:51.343Z,23.60
2023-06-29T18:52:20.152Z,23.50
2023-06-29T18:54:47.561Z,23.40
2023-06-29T18:57:14.711Z,23.50
2023-06-29T18:59:43.437Z,23.20
2023-06-29T19:02:10.900Z,23.30
2023-06-29T19:04:37.990Z,23.10
2023-06-29T19:07:05.413Z,23.10
2023-06-29T19:09:32.843Z,23.20
2023-06-29T19:12:01.197Z,22.90
2023-06-29T19:14:28.649Z,22.80
2023-06-29T19:16:57.675Z,22.80
2023-06-29T19:19:25.780Z,22.80
2023-06-29T19:21:53.422Z,22.70
2023-06-29T19:24:20.920Z,22.60
2023-06-29T19:26:48.219Z,22.60
2023-06-29T19:29:15.342Z,22.70
2023-06-29T19:31:44.976Z,22.60
2023-06-29T19:34:12.600Z,22.60
2023-06-29T19:36:40.155Z,22.50
2023-06-29T19:39:07.193Z,22.30
2023-06-29T19:41:34.458Z,22.30
2023-06-29T19:44:01.330Z,22.20
2023-06-29T19:46:28.617Z,22.20
2023-06-29T19:48:55.980Z,22.30
2023-06-29T19:51:22.974Z,22.20
2023-06-29T19:53:49.887Z,22.10
2023-06-29T19:56:16.882Z,22.10
2023-06-29T19:58:43.860Z,22.10
2023-06-29T20:01:10.902Z,22.20
2023-06-29T20:03:38.031Z,22.10
2023-06-29T20:06:05.282Z,22.00
2023-06-29T20:08:32.266Z,22.10
2023-06-29T20:10:59.213Z,22.00
2023-06-29T20:13:26.217Z,22.10
2023-06-29T20:15:53.711Z,22.00
2023-06-29T20:18:20.747Z,21.90
2023-06-29T20:20:47.759Z,21.90
2023-06-29T20:23:14.823Z,21.90
2023-06-29T20:25:41.665Z,21.80
2023-06-29T20:28:08.723Z,21.80
2023-06-29T20:30:35.633Z,21.70
2023-06-29T20:33:02.544Z,21.70
2023-06-29T20:35:30.681Z,21.70
2023-06-29T20:37:57.642Z,21.70
2023-06-29T20:40:24.857Z,21.60
2023-06-29T20:42:51.785Z,21.60
2023-06-29T20:45:18.760Z,21.60
2023-06-29T20:47:45.898Z,21.60
2023-06-29T20:50:13.056Z,21.60
2023-06-29T20:52:40.447Z,21.60
2023-06-29T20:55:07.969Z,21.50
2023-06-29T20:57:38.279Z,21.50
2023-06-29T21:00:12.795Z,21.40
2023-06-29T21:02:40.282Z,21.30
2023-06-29T21:05:08.150Z,21.20
2023-06-29T21:07:35.552Z,21.30
2023-06-29T21:10:02.609Z,21.20
2023-06-29T21:12:29.678Z,21.20
2023-06-29T21:14:57.049Z,21.30
2023-06-29T21:17:24.265Z,21.30
2023-06-29T21:19:51.735Z,21.30
2023-06-29T21:22:19.450Z,21.20
2023-06-29T21:24:47.186Z,21.20
2023-06-29T21:27:18.919Z,21.10
2023-06-29T21:29:48.296Z,21.10
2023-06-29T21:32:16.305Z,21.00
2023-06-29T21:34:43.542Z,21.10
2023-06-29T21:37:11.243Z,21.00
2023-06-29T21:39:38.100Z,20.90
2023-06-29T21:42:05.617Z,20.80
2023-06-29T21:44:32.822Z,20.80
2023-06-29T21:47:02.974Z,20.70
2023-06-29T21:49:29.992Z,20.80
2023-06-29T21:51:56.902Z,20.70
2023-06-29T21:54:23.881Z,20.60
2023-06-29T21:56:51.146Z,20.70
2023-06-29T21:59:18.398Z,20.60
2023-06-29T22:01:45.422Z,20.50
2023-06-29T22:04:13.583Z,20.50
2023-06-29T22:06:41.087Z,20.40
2023-06-29T22:09:08.435Z,20.20
2023-06-29T22:11:39.862Z,20.10
2023-06-29T22:14:10.157Z,20.00
2023-06-29T22:16:37.516Z,20.00
2023-06-29T22:19:04.699Z,20.00
2023-06-29T22:21:34.540Z,19.90
2023-06-29T22:24:01.655Z,19.90
2023-06-29T22:26:29.463Z,19.90
2023-06-29T22:28:56.460Z,20.00
2023-06-29T22:31:23.535Z,20.10
2023-06-29T22:33:51.245Z,19.90
2023-06-29T22:36:19.481Z,20.10
2023-06-29T22:38:46.685Z,20.10
2023-06-29T22:41:14.953Z,19.90
2023-06-29T22:43:41.921Z,19.90
2023-06-29T22:46:08.898Z,19.80
2023-06-29T22:48:38.368Z,19.70
2023-06-29T22:51:06.072Z,19.70
2023-06-29T22:53:33.223Z,19.70
2023-06-29T22:56:00.217Z,19.70
2023-06-29T22:58:28.313Z,19.70
2023-06-29T23:00:57.421Z,19.70
2023-06-29T23:03:24.813Z,19.60
2023-06-29T23:05:52.088Z,19.70
2023-06-29T23:08:19.040Z,19.70
2023-06-29T23:10:47.828Z,19.60
2023-06-29T23:13:17.557Z,19.60
2023-06-29T23:15:45.988Z,19.50
2023-06-29T23:18:14.115Z,19.50
2023-06-29T23:20:45.260Z,19.40
2023-06-29T23:23:14.371Z,19.40
2023-06-29T23:25:45.012Z,19.30
2023-06-29T23:28:12.311Z,19.20
2023-06-29T23:30:39.237Z,19.10
2023-06-29T23:33:09.839Z,19.10
2023-06-29T23:35:38.649Z,19.10
2023-06-29T23:38:06.571Z,19.20
2023-06-29T23:40:37.645Z,19.20
2023-06-29T23:43:08.622Z,19.20
2023-06-29T23:45:36.788Z,19.10
2023-06-29T23:48:04.821Z,19.10
2023-06-29T23:50:32.172Z,18.90
2023-06-29T23:52:59.056Z,18.90
2023-06-29T23:55:26.100Z,18.90
2023-06-29T23:57:53.218Z,18.80
